Time;durP1;ratioP1;P1;durP2;ratioP2;P2;SDS_P1;SDS_P2;PMS_P1;PMS_P2;Temp;Humidity;BMP_temperature;BMP_pressure;BME280_temperature;BME280_humidity;BME280_pressure;Samples;Min_cycle;Max_cycle;Signal;HPM_P1;HPM_P2
2023/07/11 00:01:52;;;;;;;9.73;8.85;;;;;;;;;;5046477;28;20265;-66
2023/07/11 00:04:18;;;;;;;7.95;7.32;;;;;;;;;;5046553;28;20202;-64
2023/07/11 00:06:46;;;;;;;9.73;8.77;;;;;;;;;;5046136;28;20227;-65
2023/07/11 00:09:12;;;;;;;8.52;7.72;;;;;;;;;;5046049;28;20292;-65
2023/07/11 00:11:39;;;;;;;9.80;8.35;;;;;;;;;;5046018;28;20234;-66
2023/07/11 00:14:05;;;;;;;8.65;8.05;;;;;;;;;;5046445;28;20261;-66
2023/07/11 00:16:33;;;;;;;9.75;7.60;;;;;;;;;;5045818;28;20203;-64
2023/07/11 00:19:00;;;;;;;9.40;7.65;;;;;;;;;;5046012;28;20234;-65
2023/07/11 00:21:27;;;;;;;7.80;7.13;;;;;;;;;;5045524;28;20699;-64
2023/07/11 00:24:03;;;;;;;8.68;8.07;;;;;;;;;;5046309;28;20253;-66
2023/07/11 00:26:30;;;;;;;8.63;7.93;;;;;;;;;;5045954;28;20223;-64
2023/07/11 00:28:56;;;;;;;7.95;7.20;;;;;;;;;;5046081;28;20621;-64
2023/07/11 00:31:23;;;;;;;8.55;7.85;;;;;;;;;;5045787;28;20658;-64
2023/07/11 00:33:49;;;;;;;9.60;8.77;;;;;;;;;;5045856;28;20592;-65
2023/07/11 00:36:16;;;;;;;10.23;9.25;;;;;;;;;;5045287;28;20633;-63
2023/07/11 00:38:42;;;;;;;11.75;7.88;;;;;;;;;;5045709;28;20634;-65
2023/07/11 00:41:10;;;;;;;9.63;8.73;;;;;;;;;;5047067;28;20280;-65
2023/07/11 00:43:36;;;;;;;8.80;8.20;;;;;;;;;;5049768;28;20230;-64
2023/07/11 00:46:11;;;;;;;8.80;7.97;;;;;;;;;;5049660;28;20720;-65
2023/07/11 00:48:38;;;;;;;8.32;7.53;;;;;;;;;;5049546;28;20688;-65
2023/07/11 00:51:06;;;;;;;8.82;8.23;;;;;;;;;;5050371;28;20307;-65
2023/07/11 00:53:32;;;;;;;9.35;7.45;;;;;;;;;;5050241;28;20203;-65
2023/07/11 00:56:01;;;;;;;8.57;7.85;;;;;;;;;;5049457;28;20657;-65
2023/07/11 00:58:29;;;;;;;9.73;7.28;;;;;;;;;;5049501;28;20290;-65
2023/07/11 01:00:56;;;;;;;7.72;7.22;;;;;;;;;;5049488;28;20287;-64
2023/07/11 01:03:23;;;;;;;7.55;6.97;;;;;;;;;;5049532;28;20207;-64
2023/07/11 01:05:49;;;;;;;7.85;7.15;;;;;;;;;;5049114;28;20292;-65
2023/07/11 01:08:16;;;;;;;8.50;7.63;;;;;;;;;;5046120;28;20269;-63
2023/07/11 01:10:42;;;;;;;9.68;7.38;;;;;;;;;;5046794;28;20241;-64
2023/07/11 01:13:09;;;;;;;8.05;7.35;;;;;;;;;;5049265;28;20784;-65
2023/07/11 01:15:37;;;;;;;8.07;7.45;;;;;;;;;;5046130;28;20276;-64
2023/07/11 01:18:04;;;;;;;7.95;7.20;;;;;;;;;;5042938;28;20299;-66
2023/07/11 01:20:30;;;;;;;7.57;7.05;;;;;;;;;;5047411;28;20219;-66
2023/07/11 01:22:58;;;;;;;8.27;7.55;;;;;;;;;;5047959;28;20203;-62
2023/07/11 01:25:24;;;;;;;8.73;7.53;;;;;;;;;;5048302;28;20230;-65
2023/07/11 01:27:51;;;;;;;8.70;7.82;;;;;;;;;;5047355;28;20254;-65
2023/07/11 01:30:19;;;;;;;7.82;7.30;;;;;;;;;;5048869;28;20239;-65
2023/07/11 01:32:45;;;;;;;7.47;6.93;;;;;;;;;;5048841;28;20261;-64
2023/07/11 01:35:12;;;;;;;9.25;7.38;;;;;;;;;;5047783;28;20572;-62
2023/07/11 01:37:39;;;;;;;7.45;6.95;;;;;;;;;;5048641;28;20686;-65
2023/07/11 01:40:09;;;;;;;8.60;7.82;;;;;;;;;;5048913;28;20328;-64
2023/07/11 01:42:36;;;;;;;7.25;6.65;;;;;;;;;;5047843;28;20252;-65
2023/07/11 01:45:03;;;;;;;7.00;6.60;;;;;;;;;;5048421;28;20210;-64
2023/07/11 01:47:29;;;;;;;9.00;7.35;;;;;;;;;;5048140;28;20222;-64
2023/07/11 01:49:56;;;;;;;7.68;6.85;;;;;;;;;;5048221;28;20673;-64
2023/07/11 01:52:23;;;;;;;8.55;7.72;;;;;;;;;;5047957;28;20643;-64
2023/07/11 01:54:50;;;;;;;10.98;7.93;;;;;;;;;;5045740;28;20297;-64
2023/07/11 01:57:18;;;;;;;11.15;8.00;;;;;;;;;;5048160;28;20281;-64
2023/07/11 01:59:44;;;;;;;8.55;7.72;;;;;;;;;;5048297;28;20199;-64
2023/07/11 02:02:11;;;;;;;9.02;7.97;;;;;;;;;;5048074;28;20638;-63
2023/07/11 02:04:39;;;;;;;8.90;8.07;;;;;;;;;;5047734;28;20699;-63
2023/07/11 02:07:06;;;;;;;8.27;7.78;;;;;;;;;;5047614;28;20314;-64
2023/07/11 02:09:32;;;;;;;8.68;7.78;;;;;;;;;;5047852;28;20672;-64
2023/07/11 02:11:59;;;;;;;11.18;8.27;;;;;;;;;;5047916;28;20230;-64
2023/07/11 02:14:27;;;;;;;12.15;8.45;;;;;;;;;;5048210;28;20632;-65
2023/07/11 02:16:53;;;;;;;8.23;7.47;;;;;;;;;;5047491;28;20203;-64
2023/07/11 02:19:21;;;;;;;8.02;7.32;;;;;;;;;;5047757;28;20231;-64
2023/07/11 02:21:48;;;;;;;8.65;7.53;;;;;;;;;;5047809;28;20242;-64
2023/07/11 02:24:16;;;;;;;8.60;7.75;;;;;;;;;;5048091;28;20210;-63
2023/07/11 02:26:42;;;;;;;10.70;7.85;;;;;;;;;;5048070;28;20410;-64
2023/07/11 02:29:09;;;;;;;9.30;7.28;;;;;;;;;;5047715;28;20272;-65
2023/07/11 02:31:37;;;;;;;7.55;6.93;;;;;;;;;;5047154;28;20227;-64
2023/07/11 02:34:03;;;;;;;7.40;6.78;;;;;;;;;;5047387;28;20770;-64
2023/07/11 02:36:30;;;;;;;7.53;6.82;;;;;;;-140.31;100.00;60880.16;5047682;28;20191;-63
2023/07/11 02:38:57;;;;;;;8.25;7.32;;;;;;;;;;5047996;28;20208;-63
2023/07/11 02:41:24;;;;;;;7.65;6.95;;;;;;;;;;5047091;28;20624;-63
2023/07/11 02:43:50;;;;;;;7.55;6.85;;;;;;;;;;5047661;28;20195;-63
2023/07/11 02:46:17;;;;;;;6.88;6.28;;;;;;;;;;5047245;28;20203;-64
2023/07/11 02:48:45;;;;;;;7.22;6.18;;;;;;;;;;5047573;28;20256;-63
2023/07/11 02:51:11;;;;;;;6.55;6.05;;;;;;;;;;5047251;28;20728;-64
2023/07/11 02:53:38;;;;;;;11.02;7.43;;;;;;;;;;5047572;28;20241;-64
2023/07/11 02:56:04;;;;;;;7.05;6.38;;;;;;;;;;5047565;28;20272;-64
2023/07/11 02:58:31;;;;;;;6.78;6.38;;;;;;;;;;5047751;28;20260;-64
2023/07/11 03:00:59;;;;;;;9.75;7.82;;;;;;;;;;5046839;28;20665;-65
2023/07/11 03:03:26;;;;;;;6.63;6.13;;;;;;;-140.31;0.00;56649.44;5048136;28;20253;-65
2023/07/11 03:05:54;;;;;;;7.40;6.72;;;;;;;;;;5047417;28;20297;-64
2023/07/11 03:08:21;;;;;;;7.43;6.75;;;;;;;;;;5047093;28;20226;-64
2023/07/11 03:10:47;;;;;;;10.75;7.05;;;;;;;;;;5047506;28;20284;-63
2023/07/11 03:13:14;;;;;;;7.05;6.53;;;;;;;;;;5047647;28;20692;-63
2023/07/11 03:15:41;;;;;;;7.32;6.70;;;;;;;;;;5047191;28;20203;-64
2023/07/11 03:18:08;;;;;;;9.55;7.05;;;;;;;;;;5047188;28;20278;-63
2023/07/11 03:20:36;;;;;;;6.88;6.47;;;;;;;;;;5046664;28;20231;-65
2023/07/11 03:23:04;;;;;;;7.50;6.80;;;;;;;;;;5047398;28;20750;-64
2023/07/11 03:25:30;;;;;;;7.88;6.88;;;;;;;;;;5047023;28;20380;-64
2023/07/11 03:27:56;;;;;;;7.20;6.70;;;;;;;;;;5047928;28;20273;-64
2023/07/11 03:30:23;;;;;;;11.98;7.15;;;;;;;;;;5046433;28;20203;-64
2023/07/11 03:32:49;;;;;;;7.70;7.15;;;;;;;;;;5046965;28;20253;-64
2023/07/11 03:35:16;;;;;;;10.93;7.72;;;;;;;;;;5047024;28;20734;-62
2023/07/11 03:37:42;;;;;;;7.20;6.70;;;;;;;;;;5047409;28;20203;-64
2023/07/11 03:40:11;;;;;;;7.45;6.78;;;;;;;;;;5047103;28;20211;-64
2023/07/11 03:42:37;;;;;;;7.38;6.80;;;;;;;;;;5046572;28;20696;-63
2023/07/11 03:45:04;;;;;;;7.57;6.93;;;;;;;;;;5046913;28;20249;-67
2023/07/11 03:47:31;;;;;;;8.02;7.03;;;;;;;;;;5046693;28;20254;-67
2023/07/11 03:49:57;;;;;;;10.23;6.72;;;;;;;;;;5046723;28;20296;-64
2023/07/11 03:52:23;;;;;;;7.72;6.00;;;;;;;;;;5047282;28;20219;-64
2023/07/11 03:54:50;;;;;;;6.68;6.05;;;;;;;;;;5046841;28;20199;-64
2023/07/11 03:57:18;;;;;;;7.72;7.18;;;;;;;;;;5047360;28;20195;-64
2023/07/11 03:59:44;;;;;;;9.73;6.65;;;;;;;;;;5046161;28;20226;-64
2023/07/11 04:02:11;;;;;;;6.28;5.88;;;;;;;;;;5047054;28;20758;-64
2023/07/11 04:04:37;;;;;;;11.90;9.68;;;;;;;;;;5045873;28;20239;-65
2023/07/11 04:07:04;;;;;;;15.27;13.95;;;;;;;;;;5046980;28;20341;-65
2023/07/11 04:09:30;;;;;;;14.32;11.77;;;;;;;;;;5047090;28;20199;-65
2023/07/11 04:11:57;;;;;;;9.40;8.45;;;;;;;;;;5046547;28;20195;-65
2023/07/11 04:14:25;;;;;;;8.07;7.20;;;;;;;;;;5046115;28;20203;-64
2023/07/11 04:16:51;;;;;;;11.32;7.55;;;;;;;;;;5049076;28;20321;-65
2023/07/11 04:19:18;;;;;;;7.35;6.72;;;;;;;;;;5050150;28;20226;-62
2023/07/11 04:21:44;;;;;;;9.52;6.97;;;;;;;;;;5050645;28;20268;-65
2023/07/11 04:24:10;;;;;;;8.35;6.88;;;;;;;;;;5050647;28;20246;-63
2023/07/11 04:26:37;;;;;;;17.20;11.48;;;;;;;;;;5049698;28;20254;-65
2023/07/11 04:29:03;;;;;;;15.52;10.88;;;;;;;;;;5050229;28;20651;-64
2023/07/11 04:31:31;;;;;;;11.43;9.90;;;;;;;;;;5050479;28;20711;-65
2023/07/11 04:33:57;;;;;;;9.35;8.00;;;;;;;;;;5050599;28;20203;-65
2023/07/11 04:36:24;;;;;;;8.40;7.70;;;;;;;;;;5049662;28;20294;-64
2023/07/11 04:38:50;;;;;;;12.73;11.48;;;;;;;;;;5050658;28;20676;-65
2023/07/11 04:41:17;;;;;;;13.73;11.68;;;;;;;;;;5050172;28;20199;-64
2023/07/11 04:43:43;;;;;;;11.30;9.98;;;;;;;;;;5050202;28;20211;-64
2023/07/11 04:46:10;;;;;;;30.08;20.92;;;;;;;;;;5049959;28;20256;-63
2023/07/11 04:48:38;;;;;;;25.48;17.98;;;;;;;;;;5049722;28;20599;-65
2023/07/11 04:51:06;;;;;;;13.32;8.40;;;;;;;;;;5050263;28;20272;-63
2023/07/11 04:53:34;;;;;;;11.88;7.85;;;;;;;;;;5050095;28;20199;-64
2023/07/11 04:56:01;;;;;;;8.38;7.38;;;;;;;;;;5050235;28;20238;-65
2023/07/11 04:58:29;;;;;;;9.85;8.18;;;;;;;;;;5049610;28;20269;-65
2023/07/11 05:00:59;;;;;;;8.85;7.95;;;;;;;;;;5049478;28;20281;-64
2023/07/11 05:03:26;;;;;;;14.43;8.75;;;;;;;;;;5049827;28;20210;-64
2023/07/11 05:05:54;;;;;;;11.02;7.55;;;;;;;;;;5049635;28;20256;-64
2023/07/11 05:08:20;;;;;;;9.48;7.63;;;;;;;;;;5049903;28;20247;-63
2023/07/11 05:10:53;;;;;;;13.35;8.32;;;;;;;;;;5049058;28;20230;-65
2023/07/11 05:13:20;;;;;;;10.15;8.52;;;;;;;;;;5049293;28;20704;-65
2023/07/11 05:15:46;;;;;;;11.68;7.50;;;;;;;;;;5049212;28;20203;-64
2023/07/11 05:18:13;;;;;;;14.57;8.25;;;;;;;;;;5049959;28;20195;-65
2023/07/11 05:20:39;;;;;;;14.77;8.20;;;;;;;;;;5049482;28;20259;-65
2023/07/11 05:23:07;;;;;;;8.18;7.22;;;;;;;;;;5050125;28;20238;-64
2023/07/11 05:25:36;;;;;;;7.85;7.15;;;;;;;;;;5048867;28;20288;-66
2023/07/11 05:28:02;;;;;;;10.02;6.75;;;;;;;;;;5048731;28;20658;-64
2023/07/11 05:30:28;;;;;;;7.63;6.53;;;;;;;;;;5049443;28;20282;-64
2023/07/11 05:32:56;;;;;;;7.20;6.68;;;;;;;;;;5049300;28;20678;-64
2023/07/11 05:35:22;;;;;;;9.15;7.38;;;;;;;;;;5049221;28;20673;-64
2023/07/11 05:37:48;;;;;;;8.57;6.43;;;;;;;;;;5049343;28;20206;-64
2023/07/11 05:40:16;;;;;;;8.20;6.90;;;;;;;;;;5049566;28;20203;-66
2023/07/11 05:42:43;;;;;;;7.68;7.05;;;;;;;;;;5048719;28;20268;-65
2023/07/11 05:45:10;;;;;;;12.38;7.35;;;;;;;;;;5048895;28;20264;-65
2023/07/11 05:47:36;;;;;;;9.63;7.30;;;;;;;;;;5049376;28;20250;-63
2023/07/11 05:50:03;;;;;;;14.95;7.18;;;;;;;;;;5049104;28;20703;-65
2023/07/11 05:52:29;;;;;;;13.88;7.78;;;;;;;;;;5048830;28;20223;-66
2023/07/11 05:54:56;;;;;;;8.63;7.75;;;;;;;;;;5049334;28;20211;-66
2023/07/11 05:57:23;;;;;;;10.07;7.45;;;;;;;;;;5048714;28;20230;-65
2023/07/11 05:59:50;;;;;;;12.23;7.18;;;;;;;;;;5048485;28;20684;-65
2023/07/11 06:02:16;;;;;;;8.35;7.07;;;;;;;;;;5049171;28;20203;-65
2023/07/11 06:04:43;;;;;;;10.60;8.10;;;;;;;;;;5048691;28;21063;-64
2023/07/11 06:07:09;;;;;;;8.35;7.55;;;;;;;;;;5048809;28;20277;-64
2023/07/11 06:09:36;;;;;;;17.60;7.53;;;;;;;;;;5048809;28;20219;-65
2023/07/11 06:12:02;;;;;;;9.05;7.05;;;;;;;;;;5048590;28;20284;-65
2023/07/11 06:14:30;;;;;;;13.63;7.70;;;;;;;;;;5048335;28;20280;-67
2023/07/11 06:16:56;;;;;;;9.57;7.38;;;;;;;;;;5048979;28;20272;-64
2023/07/11 06:19:23;;;;;;;9.30;7.90;;;;;;;;;;5048043;28;20677;-65
2023/07/11 06:21:49;;;;;;;8.48;6.28;;;;;;;;;;5047906;28;20723;-66
2023/07/11 06:24:16;;;;;;;14.43;7.15;;;;;;;;;;5048133;28;20217;-66
2023/07/11 06:26:42;;;;;;;8.27;7.03;;;;;;;;;;5047693;28;20557;-66
2023/07/11 06:29:09;;;;;;;7.10;6.55;;;;;;;;;;5047527;28;20676;-65
2023/07/11 06:31:36;;;;;;;9.70;7.13;;;;;;;;;;5048320;28;20680;-67
2023/07/11 06:34:03;;;;;;;7.40;6.70;;;;;;;;;;5048604;28;20199;-66
2023/07/11 06:36:29;;;;;;;9.20;6.68;;;;;;;;;;5047477;28;20210;-66
2023/07/11 06:38:56;;;;;;;8.70;6.90;;;;;;;;;;5047561;28;20191;-65
2023/07/11 06:41:22;;;;;;;8.05;7.22;;;;;;;;;;5048312;28;20284;-66
2023/07/11 06:43:49;;;;;;;9.65;7.25;;;;;;;;;;5047820;28;20214;-66
2023/07/11 06:46:15;;;;;;;8.70;7.90;;;;;;;;;;5048090;28;20293;-66
2023/07/11 06:48:43;;;;;;;14.52;7.20;;;;;;;;;;5048350;28;20415;-66
2023/07/11 06:51:10;;;;;;;14.32;7.47;;;;;;;;;;5047516;28;20223;-65
2023/07/11 06:53:36;;;;;;;14.85;10.70;;;;;;;;;;5047425;28;20199;-67
2023/07/11 06:56:03;;;;;;;21.40;10.27;;;;;;;;;;5047906;28;20264;-67
2023/07/11 06:58:30;;;;;;;16.65;7.47;;;;;;;45.86;nan;95529.41;5047586;28;20672;-66
2023/07/11 07:01:01;;;;;;;18.92;9.15;;;;;;;45.50;nan;95525.69;5047836;28;20234;-66
2023/07/11 07:03:27;;;;;;;8.23;7.20;;;;;;;;;;5047669;28;20214;-67
2023/07/11 07:05:56;;;;;;;13.73;8.13;;;;;;;;;;5047071;28;20195;-65
2023/07/11 07:08:23;;;;;;;14.95;8.02;;;;;;;;;;5047793;28;20719;-62
2023/07/11 07:10:50;;;;;;;13.93;7.13;;;;;;;;;;5047570;28;20236;-65
2023/07/11 07:13:17;;;;;;;18.90;10.43;;;;;;;;;;5048427;28;20260;-65
2023/07/11 07:15:46;;;;;;;10.57;9.65;;;;;;;;;;5046698;28;20260;-66
2023/07/11 07:18:13;;;;;;;10.85;7.32;;;;;;;;;;5047336;28;20888;-66
2023/07/11 07:20:39;;;;;;;11.32;6.80;;;;;;;48.55;nan;95515.94;5046806;28;20358;-65
2023/07/11 07:23:09;;;;;;;7.85;6.75;;;;;;;48.39;nan;95507.13;5047292;28;20260;-66
2023/07/11 07:25:36;;;;;;;7.65;7.00;;;;;;;48.55;nan;95508.66;5047139;28;20291;-66
2023/07/11 07:28:04;;;;;;;15.30;7.18;;;;;;;48.26;nan;95503.13;5047348;28;20280;-66
2023/07/11 07:30:31;;;;;;;8.73;6.78;;;;;;;;;;5047321;28;20206;-66
2023/07/11 07:32:58;;;;;;;14.55;7.03;;;;;;;49.09;nan;95498.84;5047682;28;20218;-65
2023/07/11 07:35:25;;;;;;;9.45;7.28;;;;;;;;;;5046943;28;20210;-65
2023/07/11 07:37:51;;;;;;;13.50;6.90;;;;;;;;;;5046856;28;20206;-66
2023/07/11 07:40:19;;;;;;;12.10;8.00;;;;;;;;;;5046940;28;20218;-65
2023/07/11 07:42:46;;;;;;;9.15;7.88;;;;;;;;;;5046711;28;20259;-65
2023/07/11 07:45:12;;;;;;;11.45;6.85;;;;;;;;;;5045813;28;20246;-66
2023/07/11 07:47:38;;;;;;;10.90;6.65;;;;;;;;;;5046924;28;20206;-65
2023/07/11 07:50:05;;;;;;;8.52;7.63;;;;;;;;;;5046212;28;20707;-65
2023/07/11 07:52:32;;;;;;;11.05;6.45;;;;;;;;;;5046339;28;20256;-64
2023/07/11 07:54:58;;;;;;;10.65;7.57;;;;;;;;;;5046844;28;20256;-65
2023/07/11 07:57:26;;;;;;;7.13;6.63;;;;;;;49.99;nan;95504.47;5047023;28;20647;-64
2023/07/11 07:59:53;;;;;;;8.13;6.22;;;;;;;49.99;nan;95502.53;5047108;28;20256;-64
2023/07/11 08:02:19;;;;;;;15.02;6.80;;;;;;;;;;5046916;28;20198;-65
2023/07/11 08:04:47;;;;;;;9.10;7.07;;;;;;;49.97;nan;95493.13;5046759;28;20237;-66
2023/07/11 08:07:14;;;;;;;8.77;6.55;;;;;;;50.49;nan;95488.66;5045413;28;20282;-64
2023/07/11 08:09:41;;;;;;;14.80;6.65;;;;;;;50.45;nan;95487.66;5044964;28;20222;-64
2023/07/11 08:12:10;;;;;;;9.68;7.65;;;;;;;50.21;nan;95487.69;5046362;28;20230;-65
2023/07/11 08:14:38;;;;;;;11.10;6.80;;;;;;;;;;5034264;28;20230;-65
2023/07/11 08:17:06;;;;;;;6.93;6.32;;;;;;;49.99;nan;95491.72;5046454;28;20237;-65
2023/07/11 08:19:33;;;;;;;6.55;6.15;;;;;;;50.16;nan;95480.44;5046388;28;20198;-65
2023/07/11 08:21:59;;;;;;;8.85;6.05;;;;;;;50.41;nan;95486.63;5046302;28;20296;-65
2023/07/11 08:24:27;;;;;;;9.57;6.47;;;;;;;50.25;nan;95484.13;5045559;28;20206;-65
2023/07/11 08:26:53;;;;;;;6.03;5.72;;;;;;;50.25;nan;95486.81;5046041;28;20251;-65
2023/07/11 08:29:20;;;;;;;6.75;6.25;;;;;;;50.72;nan;95481.59;5046575;28;20222;-65
2023/07/11 08:31:48;;;;;;;7.30;6.60;;;;;;;50.25;nan;95484.13;5046250;28;20652;-65
2023/07/11 08:34:15;;;;;;;6.18;5.68;;;;;;;50.51;nan;95481.03;5045567;28;20772;-67
2023/07/11 08:36:45;;;;;;;6.30;5.80;;;;;;;50.83;nan;95478.41;5045753;28;20204;-64
2023/07/11 08:39:12;;;;;;;6.10;5.70;;;;;;;51.22;nan;95477.25;5047346;28;20244;-64
2023/07/11 08:41:42;;;;;;;8.55;6.10;;;;;;;50.50;nan;95474.03;5045162;28;20687;-66
2023/07/11 08:44:15;;;;;;;7.40;5.22;;;;;;;50.28;nan;95466.50;5043520;28;20765;-66
2023/07/11 08:46:43;;;;;;;7.45;5.70;;;;;;;;;;5046244;28;20206;-65
2023/07/11 08:49:17;;;;;;;13.50;5.57;;;;;;;50.83;nan;95477.59;5046566;28;20222;-66
2023/07/11 08:51:50;;;;;;;5.95;5.38;;;;;;;50.59;nan;95475.00;5045255;28;20240;-66
2023/07/11 08:54:23;;;;;;;6.22;5.65;;;;;;;50.78;nan;95474.97;5046266;28;20210;-67
2023/07/11 08:56:51;;;;;;;6.38;5.68;;;;;;;50.22;nan;95471.16;5045436;28;20210;-66
2023/07/11 08:59:20;;;;;;;6.70;5.63;;;;;;;;;;5045878;28;20273;-63
2023/07/11 09:01:53;;;;;;;7.20;6.28;;;;;;;50.13;nan;95472.09;5042868;28;20264;-65
2023/07/11 09:04:24;;;;;;;6.45;5.72;;;;;;;49.67;nan;95462.66;5049956;28;20206;-61
2023/07/11 09:06:54;;;;;;;43.65;6.20;;;;;;;;;;5050056;28;20637;-66
2023/07/11 09:09:20;;;;;;;7.00;5.65;;;;;;;;;;5046837;28;20349;-64
2023/07/11 09:11:49;;;;;;;7.85;4.95;;;;;;;;;;5049014;28;20755;-65
2023/07/11 09:14:27;;;;;;;4.78;4.45;;;;;;;49.71;nan;95463.69;5048986;28;20194;-65
2023/07/11 09:16:58;;;;;;;10.45;4.50;;;;;;;;;;5050251;28;20596;-65
2023/07/11 09:19:35;;;;;;;7.63;4.22;;;;;;;;;;5047494;28;20234;-64
2023/07/11 09:22:05;;;;;;;5.72;5.18;;;;;;;;;;5046496;28;20230;-62
2023/07/11 09:24:35;;;;;;;5.20;4.80;;;;;;;;;;5046976;28;20692;-63
2023/07/11 09:27:04;;;;;;;14.05;12.88;;;;;;;;;;5046967;28;20260;-63
2023/07/11 09:29:31;;;;;;;32.65;29.23;;;;;;;;;;5047827;28;20215;-62
2023/07/11 09:31:59;;;;;;;11.32;10.40;;;;;;;;;;5048818;28;20268;-64
2023/07/11 09:34:27;;;;;;;7.13;6.53;;;;;;;;;;5047979;28;20203;-65
2023/07/11 09:36:56;;;;;;;9.90;8.75;;;;;;;;;;5047796;28;20207;-64
2023/07/11 09:39:27;;;;;;;9.93;9.05;;;;;;;;;;5048925;28;20203;-64
2023/07/11 09:41:55;;;;;;;6.50;5.88;;;;;;;;;;5047529;28;20698;-64
2023/07/11 09:44:22;;;;;;;7.32;6.63;;;;;;;;;;5045846;28;20673;-63
2023/07/11 09:46:48;;;;;;;5.32;5.00;;;;;;;;;;5045117;28;20646;-65
2023/07/11 09:49:18;;;;;;;6.25;5.75;;;;;;;;;;5049007;28;20257;-64
2023/07/11 09:51:47;;;;;;;6.13;5.50;;;;;;;;;;5048684;28;20328;-62
2023/07/11 09:54:18;;;;;;;15.40;5.00;;;;;;;;;;5049091;28;20219;-63
2023/07/11 09:56:46;;;;;;;9.13;5.65;;;;;;;;;;5049326;28;20202;-64
2023/07/11 09:59:13;;;;;;;5.47;5.03;;;;;;;;;;5049035;28;20199;-63
2023/07/11 10:01:39;;;;;;;6.72;6.18;;;;;;;;;;5048083;28;20680;-64
2023/07/11 10:04:07;;;;;;;7.10;6.38;;;;;;;;;;5047236;28;20199;-62
2023/07/11 10:06:34;;;;;;;5.72;5.32;;;;;;;;;;5046161;28;20688;-64
2023/07/11 10:09:05;;;;;;;6.25;5.75;;;;;;;;;;5047837;28;20312;-64
2023/07/11 10:11:33;;;;;;;6.75;6.20;;;;;;;;;;5047659;28;20722;-64
2023/07/11 10:13:59;;;;;;;5.80;5.25;;;;;;;;;;5045962;28;20665;-64
2023/07/11 10:16:32;;;;;;;5.00;4.70;;;;;;;;;;5047584;28;20217;-63
2023/07/11 10:18:58;;;;;;;5.88;5.32;;;;;;;;;;5047730;28;20692;-65
2023/07/11 10:21:27;;;;;;;6.22;5.68;;;;;;;;;;5047907;28;20241;-64
2023/07/11 10:23:54;;;;;;;5.80;5.40;;;;;;;;;;5048651;28;20203;-66
2023/07/11 10:26:22;;;;;;;4.75;4.45;;;;;;;;;;5047999;28;20207;-64
2023/07/11 10:28:55;;;;;;;6.00;5.50;;;;;;;;;;5047782;28;20203;-63
2023/07/11 10:31:24;;;;;;;5.88;5.40;;;;;;;;;;5048123;28;20303;-63
2023/07/11 10:33:51;;;;;;;11.32;5.70;;;;;;;;;;5047997;28;20724;-64
2023/07/11 10:36:20;;;;;;;7.10;6.22;;;;;;;;;;5048323;28;20256;-63
2023/07/11 10:38:50;;;;;;;8.05;6.95;;;;;;;;;;5047687;28;20203;-61
2023/07/11 10:41:19;;;;;;;7.82;5.50;;;;;;;;;;5048086;28;20230;-63
2023/07/11 10:43:48;;;;;;;7.07;6.25;;;;;;;;;;5048154;28;20252;-63
2023/07/11 10:46:19;;;;;;;7.75;6.80;;;;;;;;;;5047772;28;20293;-64
2023/07/11 10:48:48;;;;;;;8.07;6.05;;;;;;;;;;5048114;28;20276;-63
2023/07/11 10:51:17;;;;;;;8.50;6.70;;;;;;;;;;5047667;28;20766;-63
2023/07/11 10:53:44;;;;;;;7.22;6.50;;;;;;;;;;5048187;28;20218;-65
2023/07/11 10:56:13;;;;;;;7.03;5.97;;;;;;;;;;5047625;28;20223;-64
2023/07/11 10:58:40;;;;;;;11.00;6.53;;;;;;;;;;5048050;28;20290;-64
2023/07/11 11:01:13;;;;;;;12.02;6.05;;;;;;;;;;5046932;28;21198;-63
2023/07/11 11:03:42;;;;;;;6.25;5.65;;;;;;;;;;5048001;28;20241;-64
2023/07/11 11:06:23;;;;;;;9.43;5.88;;;;;;;;;;5046925;28;20793;-65
2023/07/11 11:08:53;;;;;;;7.25;5.30;;;;;;;;;;5046759;28;20669;-63
2023/07/11 11:11:24;;;;;;;5.25;4.93;;;;;;;;;;5047193;28;20260;-65
2023/07/11 11:13:55;;;;;;;5.45;4.90;;;;;;;;;;5047428;28;20230;-63
2023/07/11 11:16:24;;;;;;;5.28;4.70;;;;;;;;;;5046922;28;20750;-63
2023/07/11 11:18:59;;;;;;;9.48;5.45;;;;;;;;;;5047961;28;20257;-63
2023/07/11 11:21:31;;;;;;;5.85;5.35;;;;;;;;;;5046750;28;20226;-64
2023/07/11 11:24:07;;;;;;;5.25;4.78;;;;;;;;;;5045112;28;21264;-63
2023/07/11 11:26:37;;;;;;;6.95;5.70;;;;;;;;;;5047149;28;20221;-63
2023/07/11 11:29:08;;;;;;;5.10;4.63;;;;;;;;;;5047258;28;20203;-64
2023/07/11 11:31:38;;;;;;;5.68;5.03;;;;;;;;;;5047018;28;20206;-66
2023/07/11 11:34:21;;;;;;;5.50;5.10;;;;;;;;;;5047034;28;20226;-62
2023/07/11 11:36:53;;;;;;;4.85;4.35;;;;;;;;;;5046903;28;20231;-63
2023/07/11 11:39:25;;;;;;;8.25;5.45;;;;;;;;;;5047240;28;20287;-65
2023/07/11 11:41:56;;;;;;;5.35;4.85;;;;;;;;;;5046923;28;20293;-65
2023/07/11 11:44:24;;;;;;;5.63;5.22;;;;;;;;;;5046087;28;20206;-62
2023/07/11 11:46:50;;;;;;;6.85;5.05;;;;;;;;;;5044069;28;20743;-64
2023/07/11 11:49:19;;;;;;;6.32;5.70;;;;;;;;;;5046585;28;20300;-65
2023/07/11 11:51:46;;;;;;;7.45;4.50;;;;;;;;;;5044651;28;20211;-63
2023/07/11 11:54:17;;;;;;;5.13;4.70;;;;;;;;;;5045012;28;20231;-63
2023/07/11 11:56:46;;;;;;;4.95;4.10;;;;;;;30.20;nan;95373.97;5045446;28;20260;-64
2023/07/11 11:59:16;;;;;;;6.05;4.70;;;;;;;;;;5046600;28;21442;-64
2023/07/11 12:01:48;;;;;;;8.40;5.50;;;;;;;;;;5046705;28;20203;-65
2023/07/11 12:04:33;;;;;;;5.43;5.03;;;;;;;;;;5046814;28;20198;-63
2023/07/11 12:07:04;;;;;;;5.15;4.53;;;;;;;;;;5046259;28;20203;-65
2023/07/11 12:09:39;;;;;;;5.10;4.80;;;;;;;;;;5044803;28;20231;-64
2023/07/11 12:12:06;;;;;;;5.45;5.00;;;;;;;;;;5046608;28;20245;-64
2023/07/11 12:14:36;;;;;;;4.82;4.50;;;;;;;;;;5045333;28;20206;-64
2023/07/11 12:17:03;;;;;;;5.20;4.80;;;;;;;;;;5045398;28;20245;-64
2023/07/11 12:19:31;;;;;;;5.50;5.05;;;;;;;;;;5045597;28;20226;-64
2023/07/11 12:21:59;;;;;;;5.32;4.88;;;;;;;;;;5045191;28;20666;-65
2023/07/11 12:24:40;;;;;;;4.80;4.50;;;;;;;;;;5046070;28;20724;-64
2023/07/11 12:27:25;;;;;;;5.90;5.40;;;;;;;;;;5045790;28;20293;-62
2023/07/11 12:29:52;;;;;;;5.40;4.90;;;;;;;;;;5046761;28;20332;-64
2023/07/11 12:32:45;;;;;;;7.47;5.38;;;;;;;;;;5046465;28;20203;-64
2023/07/11 12:35:14;;;;;;;5.43;4.93;;;;;;;;;;5032012;28;20226;-62
2023/07/11 12:37:46;;;;;;;5.20;4.90;;;;;;;;;;5047841;28;20210;-65
2023/07/11 12:40:15;;;;;;;5.47;5.00;;;;;;;;;;5050375;28;20207;-64
2023/07/11 12:42:49;;;;;;;5.28;4.80;;;;;;;;;;5049802;28;20256;-63
2023/07/11 12:45:17;;;;;;;7.00;4.60;;;;;;;;;;5050048;28;20212;-64
2023/07/11 12:47:44;;;;;;;5.82;5.30;;;;;;;;;;5050123;28;20250;-64
2023/07/11 12:50:15;;;;;;;6.38;5.00;;;;;;;;;;5050388;28;20226;-64
2023/07/11 12:52:41;;;;;;;5.18;4.75;;;;;;;;;;5049907;28;20265;-65
2023/07/11 12:55:11;;;;;;;6.18;5.78;;;;;;;;;;5049699;28;20207;-62
2023/07/11 12:57:44;;;;;;;5.95;4.85;;;;;;;;;;5048369;28;20210;-64
2023/07/11 13:00:17;;;;;;;5.78;5.20;;;;;;;;;;5049106;28;20716;-64
2023/07/11 13:02:45;;;;;;;7.15;5.22;;;;;;;;;;5044814;28;20215;-63
2023/07/11 13:05:12;;;;;;;5.32;4.90;;;;;;;;;;5049709;28;20207;-64
2023/07/11 13:07:39;;;;;;;5.55;5.15;;;;;;;;;;5049895;28;20616;-63
2023/07/11 13:10:14;;;;;;;5.95;5.55;;;;;;;;;;5050539;28;20301;-64
2023/07/11 13:12:41;;;;;;;7.43;4.80;;;;;;;;;;5049279;28;20233;-64
2023/07/11 13:15:12;;;;;;;5.65;5.13;;;;;;;;;;5049917;28;20206;-64
2023/07/11 13:17:39;;;;;;;5.57;5.18;;;;;;;;;;5049394;28;20207;-63
2023/07/11 13:20:06;;;;;;;6.35;4.53;;;;;;;;;;5049656;28;20634;-63
2023/07/11 13:22:33;;;;;;;10.45;6.32;;;;;;;;;;5049527;28;20207;-63
2023/07/11 13:25:01;;;;;;;5.60;4.85;;;;;;;;;;5049595;28;20234;-65
2023/07/11 13:27:29;;;;;;;6.35;4.75;;;;;;;;;;5048497;28;20211;-65
2023/07/11 13:29:57;;;;;;;6.18;5.70;;;;;;;;;;5050030;28;20226;-63
2023/07/11 13:32:24;;;;;;;5.97;5.30;;;;;;;;;;5049175;28;20203;-63
2023/07/11 13:34:52;;;;;;;5.43;4.90;;;;;;;;;;5049777;28;20214;-64
2023/07/11 13:37:22;;;;;;;5.55;5.00;;;;;;;;;;5049120;28;20269;-64
2023/07/11 13:39:48;;;;;;;5.60;5.10;;;;;;;;;;5049333;28;20195;-64
2023/07/11 13:42:15;;;;;;;5.55;5.03;;;;;;;;;;5049014;28;20234;-62
2023/07/11 13:44:45;;;;;;;9.02;5.07;;;;;;;;;;5048542;28;20239;-63
2023/07/11 13:47:14;;;;;;;5.68;5.28;;;;;;;;;;5049308;28;20202;-62
2023/07/11 13:49:43;;;;;;;5.90;4.93;;;;;;;;;;5048510;28;20287;-63
2023/07/11 13:52:18;;;;;;;5.32;4.82;;;;;;;;;;5047526;28;20227;-64
2023/07/11 13:54:50;;;;;;;4.82;4.47;;;;;;;;;;5047813;28;20672;-62
2023/07/11 13:57:17;;;;;;;6.28;4.63;;;;;;;;;;5048081;28;20195;-63
2023/07/11 13:59:43;;;;;;;5.07;4.68;;;;;;;;;;5048220;28;20207;-63
2023/07/11 14:02:15;;;;;;;4.88;4.47;;;;;;;;;;5048081;28;20199;-63
2023/07/11 14:04:42;;;;;;;4.80;4.50;;;;;;;;;;5046772;28;20213;-62
2023/07/11 14:07:09;;;;;;;5.38;4.88;;;;;;;;;;5047274;28;20227;-62
2023/07/11 14:09:35;;;;;;;7.07;5.53;;;;;;;;;;5048866;28;20211;-63
2023/07/11 14:12:02;;;;;;;5.00;4.70;;;;;;;;;;5048753;28;20869;-63
2023/07/11 14:14:28;;;;;;;4.90;4.30;;;;;;;;;;5048172;28;20701;-63
2023/07/11 14:16:55;;;;;;;4.90;4.47;;;;;;;;;;5048851;28;20606;-63
2023/07/11 14:19:24;;;;;;;4.88;4.47;;;;;;;;;;5048090;28;20203;-64
2023/07/11 14:21:51;;;;;;;5.32;4.82;;;;;;;;;;5047806;28;20304;-62
2023/07/11 14:24:17;;;;;;;5.75;4.60;;;;;;;;;;5046987;28;20199;-62